sensor_id;sensor_type;location;lat;lon;timestamp;temperature;humidity
7212;DHT22;3647;48.792;9.802;2022-11-20T08:37:47;6.60;99.90
7212;DHT22;3647;48.792;9.802;2022-11-20T08:40:15;6.60;99.90
7212;DHT22;3647;48.792;9.802;2022-11-20T08:42:51;6.60;99.90
7212;DHT22;3647;48.792;9.802;2022-11-20T08:45:18;6.50;99.90
7212;DHT22;3647;48.792;9.802;2022-11-20T08:47:46;6.50;99.90
7212;DHT22;3647;48.792;9.802;2022-11-20T08:50:15;6.40;99.90
7212;DHT22;3647;48.792;9.802;2022-11-20T08:52:42;6.40;99.90
7212;DHT22;3647;48.792;9.802;2022-11-20T08:55:10;6.40;99.90
7212;DHT22;3647;48.792;9.802;2022-11-20T08:57:37;6.40;99.90
7212;DHT22;3647;48.792;9.802;2022-11-20T09:00:06;6.40;99.90
7212;DHT22;3647;48.792;9.802;2022-11-20T09:02:33;6.50;99.90
7212;DHT22;3647;48.792;9.802;2022-11-20T09:05:00;6.50;99.90
7212;DHT22;3647;48.792;9.802;2022-11-20T09:07:28;6.60;99.90
7212;DHT22;3647;48.792;9.802;2022-11-20T09:09:55;6.60;99.90
7212;DHT22;3647;48.792;9.802;2022-11-20T09:12:23;6.60;99.90
7212;DHT22;3647;48.792;9.802;2022-11-20T09:14:50;6.70;99.90
7212;DHT22;3647;48.792;9.802;2022-11-20T09:17:17;7.50;99.90
7212;DHT22;3647;48.792;9.802;2022-11-20T09:19:45;6.70;99.90
7212;DHT22;3647;48.792;9.802;2022-11-20T09:22:12;6.70;99.90
7212;DHT22;3647;48.792;9.802;2022-11-20T09:24:39;6.60;99.90
7212;DHT22;3647;48.792;9.802;2022-11-20T12:33:54;7.50;99.90
7212;DHT22;3647;48.792;9.802;2022-11-20T12:36:29;8.00;99.90
7212;DHT22;3647;48.792;9.802;2022-11-20T12:39:18;10.10;99.90
7212;DHT22;3647;48.792;9.802;2022-11-20T12:42:02;8.20;99.90
7212;DHT22;3647;48.792;9.802;2022-11-20T12:45:10;8.20;99.90
7212;DHT22;3647;48.792;9.802;2022-11-20T12:48:09;8.20;99.90
7212;DHT22;3647;48.792;9.802;2022-11-20T12:50:49;8.30;99.90
7212;DHT22;3647;48.792;9.802;2022-11-20T12:53:25;8.40;99.90
7212;DHT22;3647;48.792;9.802;2022-11-20T12:56:04;8.50;99.90
7212;DHT22;3647;48.792;9.802;2022-11-20T12:58:40;8.50;99.90
7212;DHT22;3647;48.792;9.802;2022-11-20T13:01:20;8.40;99.90
7212;DHT22;3647;48.792;9.802;2022-11-20T13:04:10;8.40;99.90
7212;DHT22;3647;48.792;9.802;2022-11-20T13:06:43;8.40;99.90
7212;DHT22;3647;48.792;9.802;2022-11-20T13:09:13;8.40;99.90
7212;DHT22;3647;48.792;9.802;2022-11-20T13:11:44;8.90;99.90
7212;DHT22;3647;48.792;9.802;2022-11-20T13:14:24;8.60;99.90
7212;DHT22;3647;48.792;9.802;2022-11-20T13:16:55;8.60;99.90
7212;DHT22;3647;48.792;9.802;2022-11-20T13:19:24;8.60;99.90
7212;DHT22;3647;48.792;9.802;2022-11-20T13:21:54;8.60;99.90
7212;DHT22;3647;48.792;9.802;2022-11-20T13:24:24;8.60;99.90
7212;DHT22;3647;48.792;9.802;2022-11-20T13:27:17;8.50;99.90
7212;DHT22;3647;48.792;9.802;2022-11-20T13:29:46;8.50;99.90
7212;DHT22;3647;48.792;9.802;2022-11-20T13:32:15;8.40;99.90
7212;DHT22;3647;48.792;9.802;2022-11-20T13:34:51;8.30;99.90
7212;DHT22;3647;48.792;9.802;2022-11-20T13:37:28;8.20;99.90
7212;DHT22;3647;48.792;9.802;2022-11-20T13:40:11;8.10;99.90
7212;DHT22;3647;48.792;9.802;2022-11-20T13:42:40;8.10;99.90
7212;DHT22;3647;48.792;9.802;2022-11-20T13:45:21;9.90;99.90
7212;DHT22;3647;48.792;9.802;2022-11-20T15:54:40;6.80;99.90
7212;DHT22;3647;48.792;9.802;2022-11-20T15:57:07;6.80;99.90
7212;DHT22;3647;48.792;9.802;2022-11-20T15:59:34;6.80;99.90
7212;DHT22;3647;48.792;9.802;2022-11-20T16:02:02;6.80;99.90
7212;DHT22;3647;48.792;9.802;2022-11-20T16:04:29;6.80;99.90
7212;DHT22;3647;48.792;9.802;2022-11-20T16:06:56;6.80;99.90
7212;DHT22;3647;48.792;9.802;2022-11-20T16:09:22;6.80;99.90
7212;DHT22;3647;48.792;9.802;2022-11-20T16:11:51;6.70;99.90
7212;DHT22;3647;48.792;9.802;2022-11-20T16:14:17;6.70;99.90
7212;DHT22;3647;48.792;9.802;2022-11-20T16:17:02;6.70;99.90
7212;DHT22;3647;48.792;9.802;2022-11-20T16:19:29;6.70;99.90
7212;DHT22;3647;48.792;9.802;2022-11-20T16:21:57;6.70;99.90
7212;DHT22;3647;48.792;9.802;2022-11-20T16:24:24;7.80;99.90
7212;DHT22;3647;48.792;9.802;2022-11-20T16:26:52;6.70;99.90
7212;DHT22;3647;48.792;9.802;2022-11-20T16:29:19;6.60;99.90
7212;DHT22;3647;48.792;9.802;2022-11-20T16:31:46;6.60;99.90
7212;DHT22;3647;48.792;9.802;2022-11-20T16:34:16;6.50;99.90
7212;DHT22;3647;48.792;9.802;2022-11-20T16:36:44;6.50;99.90
7212;DHT22;3647;48.792;9.802;2022-11-20T16:39:11;7.80;99.90
7212;DHT22;3647;48.792;9.802;2022-11-20T16:41:38;6.30;99.90
7212;DHT22;3647;48.792;9.802;2022-11-20T16:44:09;6.50;99.90
7212;DHT22;3647;48.792;9.802;2022-11-20T16:46:36;6.30;99.90
7212;DHT22;3647;48.792;9.802;2022-11-20T16:49:04;6.20;99.90
7212;DHT22;3647;48.792;9.802;2022-11-20T16:51:34;6.10;99.90
7212;DHT22;3647;48.792;9.802;2022-11-20T16:54:02;6.10;99.90
7212;DHT22;3647;48.792;9.802;2022-11-20T16:56:29;6.00;99.90
7212;DHT22;3647;48.792;9.802;2022-11-20T16:58:58;5.90;99.90
7212;DHT22;3647;48.792;9.802;2022-11-20T17:01:27;5.90;99.90
7212;DHT22;3647;48.792;9.802;2022-11-20T17:03:56;6.30;99.90
7212;DHT22;3647;48.792;9.802;2022-11-20T17:06:25;5.80;99.90
7212;DHT22;3647;48.792;9.802;2022-11-20T17:08:53;5.80;99.90
7212;DHT22;3647;48.792;9.802;2022-11-20T17:11:20;5.70;99.90
7212;DHT22;3647;48.792;9.802;2022-11-20T17:13:47;5.70;99.90
7212;DHT22;3647;48.792;9.802;2022-11-20T17:16:17;5.70;99.90
7212;DHT22;3647;48.792;9.802;2022-11-20T17:18:45;7.00;99.90
7212;DHT22;3647;48.792;9.802;2022-11-20T17:21:12;5.70;99.90
7212;DHT22;3647;48.792;9.802;2022-11-20T17:23:40;5.60;99.90
7212;DHT22;3647;48.792;9.802;2022-11-20T17:26:09;6.20;99.90
7212;DHT22;3647;48.792;9.802;2022-11-20T17:28:38;5.50;99.90
7212;DHT22;3647;48.792;9.802;2022-11-20T17:31:08;5.50;99.90
7212;DHT22;3647;48.792;9.802;2022-11-20T17:33:37;5.50;99.90
7212;DHT22;3647;48.792;9.802;2022-11-20T17:36:07;5.50;99.90
7212;DHT22;3647;48.792;9.802;2022-11-20T17:38:34;5.50;99.90
7212;DHT22;3647;48.792;9.802;2022-11-20T17:41:02;5.40;99.90
7212;DHT22;3647;48.792;9.802;2022-11-20T17:43:30;5.70;99.90
7212;DHT22;3647;48.792;9.802;2022-11-20T17:45:57;5.50;99.90
7212;DHT22;3647;48.792;9.802;2022-11-20T17:48:24;5.50;99.90
7212;DHT22;3647;48.792;9.802;2022-11-20T17:50:51;5.50;99.90
7212;DHT22;3647;48.792;9.802;2022-11-20T17:53:19;5.50;99.90
7212;DHT22;3647;48.792;9.802;2022-11-20T17:55:54;5.50;99.90
7212;DHT22;3647;48.792;9.802;2022-11-20T17:58:38;5.40;99.90
7212;DHT22;3647;48.792;9.802;2022-11-20T18:01:05;5.30;99.90
7212;DHT22;3647;48.792;9.802;2022-11-20T18:03:32;5.20;99.90
7212;DHT22;3647;48.792;9.802;2022-11-20T18:06:07;5.20;99.90
7212;DHT22;3647;48.792;9.802;2022-11-20T18:08:35;5.90;99.90
7212;DHT22;3647;48.792;9.802;2022-11-20T18:11:08;5.20;99.90
7212;DHT22;3647;48.792;9.802;2022-11-20T18:13:35;5.10;99.90
7212;DHT22;3647;48.792;9.802;2022-11-20T18:16:16;5.20;99.90
7212;DHT22;3647;48.792;9.802;2022-11-20T18:18:43;5.00;99.90
7212;DHT22;3647;48.792;9.802;2022-11-20T18:21:10;5.20;99.90
7212;DHT22;3647;48.792;9.802;2022-11-20T18:23:38;5.10;99.90
7212;DHT22;3647;48.792;9.802;2022-11-20T18:26:05;7.20;99.90
7212;DHT22;3647;48.792;9.802;2022-11-20T18:28:36;5.00;99.90
7212;DHT22;3647;48.792;9.802;2022-11-20T18:31:04;5.00;99.90
7212;DHT22;3647;48.792;9.802;2022-11-20T18:33:31;5.00;99.90
7212;DHT22;3647;48.792;9.802;2022-11-20T18:36:07;5.10;99.90
7212;DHT22;3647;48.792;9.802;2022-11-20T18:38:34;5.10;99.90
7212;DHT22;3647;48.792;9.802;2022-11-20T18:41:06;5.10;99.90
7212;DHT22;3647;48.792;9.802;2022-11-20T18:43:54;5.10;99.90
7212;DHT22;3647;48.792;9.802;2022-11-20T18:46:38;5.10;99.90
7212;DHT22;3647;48.792;9.802;2022-11-20T18:49:07;5.00;99.90
7212;DHT22;3647;48.792;9.802;2022-11-20T18:51:34;5.00;99.90
7212;DHT22;3647;48.792;9.802;2022-11-20T18:54:01;5.30;99.90
7212;DHT22;3647;48.792;9.802;2022-11-20T18:56:30;5.00;99.90
7212;DHT22;3647;48.792;9.802;2022-11-20T18:58:59;5.00;99.90
7212;DHT22;3647;48.792;9.802;2022-11-20T19:01:25;5.20;99.90
7212;DHT22;3647;48.792;9.802;2022-11-20T19:03:52;5.00;99.90
7212;DHT22;3647;48.792;9.802;2022-11-20T19:06:19;5.00;99.90
7212;DHT22;3647;48.792;9.802;2022-11-20T19:08:46;5.10;99.90
7212;DHT22;3647;48.792;9.802;2022-11-20T19:11:13;5.10;99.90
7212;DHT22;3647;48.792;9.802;2022-11-20T19:13:42;5.20;99.90
7212;DHT22;3647;48.792;9.802;2022-11-20T19:16:13;5.20;99.90
7212;DHT22;3647;48.792;9.802;2022-11-20T19:18:40;5.30;99.90
7212;DHT22;3647;48.792;9.802;2022-11-20T20:36:17;5.30;99.90
7212;DHT22;3647;48.792;9.802;2022-11-20T20:38:44;5.20;99.90
7212;DHT22;3647;48.792;9.802;2022-11-20T20:41:11;5.20;99.90
7212;DHT22;3647;48.792;9.802;2022-11-20T20:43:38;5.20;99.90
7212;DHT22;3647;48.792;9.802;2022-11-20T20:46:23;5.20;99.90
7212;DHT22;3647;48.792;9.802;2022-11-20T20:48:50;5.20;99.90
7212;DHT22;3647;48.792;9.802;2022-11-20T20:51:18;5.20;99.90
7212;DHT22;3647;48.792;9.802;2022-11-20T20:53:45;5.20;99.90
7212;DHT22;3647;48.792;9.802;2022-11-20T20:56:12;5.20;99.90
7212;DHT22;3647;48.792;9.802;2022-11-20T20:58:39;5.20;99.90
7212;DHT22;3647;48.792;9.802;2022-11-20T21:01:08;5.20;99.90
7212;DHT22;3647;48.792;9.802;2022-11-20T21:03:35;5.20;99.90
7212;DHT22;3647;48.792;9.802;2022-11-20T21:06:03;5.20;99.90
7212;DHT22;3647;48.792;9.802;2022-11-20T21:08:32;5.20;99.90
7212;DHT22;3647;48.792;9.802;2022-11-20T21:11:01;5.20;99.90
7212;DHT22;3647;48.792;9.802;2022-11-20T21:13:29;5.30;99.90
7212;DHT22;3647;48.792;9.802;2022-11-20T21:15:56;5.30;99.90
7212;DHT22;3647;48.792;9.802;2022-11-20T21:18:25;5.70;99.90
7212;DHT22;3647;48.792;9.802;2022-11-20T21:20:52;5.30;99.90
7212;DHT22;3647;48.792;9.802;2022-11-20T21:23:39;5.30;99.90
7212;DHT22;3647;48.792;9.802;2022-11-20T21:26:07;5.30;99.90
7212;DHT22;3647;48.792;9.802;2022-11-20T21:28:35;5.30;99.90
